Terminal Aerodrome Forecast
Issued by NWS Wilmington, OH

Current Version | Previous Version | Graphics & Text | Print | Product List | Glossary On
Versions: 1 2 3 4 5 6 7 8 9 10 11 12 13 14 15 16 17 18 19 20 21 22 23 24 25
000
FTUS41 KILN 190857 AAA
TAFDAY
TAF AMD
KDAY 190857Z 1909/2006 13006KT P6SM VCSH BKN014 OVC018
     FM191300 18012KT P6SM VCSH OVC009
     FM191800 21012G20KT P6SM -SHRA VCTS BKN025CB
     FM192200 24010KT P6SM BKN015
     FM200100 24007KT P6SM BKN035=

USA.gov is the U.S. government's official web portal to all federal, state and local government web resources and services.